sensor_id;sensor_type;location;lat;lon;timestamp;pressure;altitude;pressure_sealevel;temperature;humidity
54144;BME280;40050;47.324;18.792;2023-07-09T00:01:02;1008.01;;;21.59;56.50
54144;BME280;40050;47.324;18.792;2023-07-09T00:03:03;1008.02;;;21.54;56.55
54144;BME280;40050;47.324;18.792;2023-07-09T00:05:04;1008.02;;;21.46;56.64
54144;BME280;40050;47.324;18.792;2023-07-09T00:07:05;1008.03;;;21.41;56.67
54144;BME280;40050;47.324;18.792;2023-07-09T00:09:08;1007.99;;;21.34;56.62
54144;BME280;40050;47.324;18.792;2023-07-09T00:11:12;1008.02;;;21.33;56.78
54144;BME280;40050;47.324;18.792;2023-07-09T00:13:13;1008.01;;;21.28;57.00
54144;BME280;40050;47.324;18.792;2023-07-09T00:15:15;1008.08;;;21.26;56.99
54144;BME280;40050;47.324;18.792;2023-07-09T00:17:21;1008.05;;;21.19;57.20
54144;BME280;40050;47.324;18.792;2023-07-09T00:19:23;1008.14;;;21.20;57.29
54144;BME280;40050;47.324;18.792;2023-07-09T00:21:24;1008.08;;;21.14;57.37
54144;BME280;40050;47.324;18.792;2023-07-09T00:23:25;1008.09;;;21.13;57.45
54144;BME280;40050;47.324;18.792;2023-07-09T00:25:26;1008.06;;;21.14;57.68
54144;BME280;40050;47.324;18.792;2023-07-09T00:27:28;1008.13;;;21.15;57.86
54144;BME280;40050;47.324;18.792;2023-07-09T00:29:29;1008.11;;;21.14;57.96
54144;BME280;40050;47.324;18.792;2023-07-09T00:31:30;1008.11;;;21.10;58.06
54144;BME280;40050;47.324;18.792;2023-07-09T00:33:31;1008.09;;;21.06;58.05
54144;BME280;40050;47.324;18.792;2023-07-09T00:35:32;1008.11;;;21.04;58.14
54144;BME280;40050;47.324;18.792;2023-07-09T00:37:33;1008.18;;;21.02;58.18
54144;BME280;40050;47.324;18.792;2023-07-09T00:39:34;1008.18;;;20.97;58.29
54144;BME280;40050;47.324;18.792;2023-07-09T00:41:35;1008.21;;;20.92;58.35
54144;BME280;40050;47.324;18.792;2023-07-09T00:43:37;1008.23;;;20.89;58.44
54144;BME280;40050;47.324;18.792;2023-07-09T00:45:38;1008.23;;;20.85;57.87
54144;BME280;40050;47.324;18.792;2023-07-09T00:47:47;1008.22;;;20.82;57.49
54144;BME280;40050;47.324;18.792;2023-07-09T00:49:49;1008.21;;;20.76;57.65
54144;BME280;40050;47.324;18.792;2023-07-09T00:51:50;1008.22;;;20.69;57.93
54144;BME280;40050;47.324;18.792;2023-07-09T00:53:52;1008.25;;;20.64;58.45
54144;BME280;40050;47.324;18.792;2023-07-09T00:56:04;1008.25;;;20.59;58.89
54144;BME280;40050;47.324;18.792;2023-07-09T00:58:08;1008.25;;;20.56;59.21
54144;BME280;40050;47.324;18.792;2023-07-09T01:00:11;1008.26;;;20.56;59.32
54144;BME280;40050;47.324;18.792;2023-07-09T01:02:13;1008.23;;;20.51;59.35
54144;BME280;40050;47.324;18.792;2023-07-09T01:04:14;1008.19;;;20.49;59.38
54144;BME280;40050;47.324;18.792;2023-07-09T01:06:18;1008.12;;;20.42;59.39
54144;BME280;40050;47.324;18.792;2023-07-09T01:08:20;1008.21;;;20.45;59.33
54144;BME280;40050;47.324;18.792;2023-07-09T01:10:21;1008.24;;;20.44;59.15
54144;BME280;40050;47.324;18.792;2023-07-09T01:12:22;1008.19;;;20.40;59.15
54144;BME280;40050;47.324;18.792;2023-07-09T01:14:24;1008.17;;;20.34;59.03
54144;BME280;40050;47.324;18.792;2023-07-09T01:16:26;1008.17;;;20.34;59.04
54144;BME280;40050;47.324;18.792;2023-07-09T01:18:28;1008.17;;;20.33;59.05
54144;BME280;40050;47.324;18.792;2023-07-09T01:20:29;1008.16;;;20.31;59.13
54144;BME280;40050;47.324;18.792;2023-07-09T01:22:30;1008.19;;;20.24;59.28
54144;BME280;40050;47.324;18.792;2023-07-09T01:24:48;1008.17;;;20.18;59.50
54144;BME280;40050;47.324;18.792;2023-07-09T01:26:49;1008.12;;;20.08;59.69
54144;BME280;40050;47.324;18.792;2023-07-09T01:28:50;1008.16;;;20.03;59.90
54144;BME280;40050;47.324;18.792;2023-07-09T01:30:51;1008.18;;;20.00;59.98
54144;BME280;40050;47.324;18.792;2023-07-09T01:32:55;1008.19;;;19.98;59.93
54144;BME280;40050;47.324;18.792;2023-07-09T01:34:57;1008.16;;;19.95;60.13
54144;BME280;40050;47.324;18.792;2023-07-09T01:36:58;1008.16;;;19.82;60.25
54144;BME280;40050;47.324;18.792;2023-07-09T01:38:59;1008.22;;;19.86;60.32
54144;BME280;40050;47.324;18.792;2023-07-09T01:41:01;1008.25;;;19.85;60.35
54144;BME280;40050;47.324;18.792;2023-07-09T01:43:03;1008.19;;;19.82;60.40
54144;BME280;40050;47.324;18.792;2023-07-09T01:45:04;1008.24;;;19.81;60.41
54144;BME280;40050;47.324;18.792;2023-07-09T01:47:05;1008.06;;;19.66;60.42
54144;BME280;40050;47.324;18.792;2023-07-09T01:49:07;1008.20;;;19.72;60.38
54144;BME280;40050;47.324;18.792;2023-07-09T01:51:09;1008.31;;;19.76;60.51
54144;BME280;40050;47.324;18.792;2023-07-09T01:53:11;1008.23;;;19.66;60.60
54144;BME280;40050;47.324;18.792;2023-07-09T01:55:13;1008.36;;;19.70;60.63
54144;BME280;40050;47.324;18.792;2023-07-09T01:57:15;1008.35;;;19.67;60.62
54144;BME280;40050;47.324;18.792;2023-07-09T01:59:17;1008.37;;;19.63;60.76
54144;BME280;40050;47.324;18.792;2023-07-09T02:01:18;1008.38;;;19.60;60.85
54144;BME280;40050;47.324;18.792;2023-07-09T02:03:19;1008.37;;;19.59;60.74
54144;BME280;40050;47.324;18.792;2023-07-09T02:05:20;1008.36;;;19.53;60.77
54144;BME280;40050;47.324;18.792;2023-07-09T02:07:21;1008.38;;;19.50;60.92
54144;BME280;40050;47.324;18.792;2023-07-09T02:09:23;1008.40;;;19.48;60.93
54144;BME280;40050;47.324;18.792;2023-07-09T02:11:24;1008.40;;;19.46;60.77
54144;BME280;40050;47.324;18.792;2023-07-09T02:13:25;1008.37;;;19.44;60.78
54144;BME280;40050;47.324;18.792;2023-07-09T02:15:26;1008.40;;;19.41;60.82
54144;BME280;40050;47.324;18.792;2023-07-09T02:17:27;1008.39;;;19.40;60.99
54144;BME280;40050;47.324;18.792;2023-07-09T02:19:28;1008.36;;;19.37;61.05
54144;BME280;40050;47.324;18.792;2023-07-09T02:21:29;1008.33;;;19.34;61.08
54144;BME280;40050;47.324;18.792;2023-07-09T02:23:30;1008.39;;;19.33;61.04
54144;BME280;40050;47.324;18.792;2023-07-09T02:25:31;1008.41;;;19.36;61.04
54144;BME280;40050;47.324;18.792;2023-07-09T02:27:32;1008.44;;;19.34;60.95
54144;BME280;40050;47.324;18.792;2023-07-09T02:29:33;1008.47;;;19.34;61.07
54144;BME280;40050;47.324;18.792;2023-07-09T02:31:34;1008.50;;;19.33;61.20
54144;BME280;40050;47.324;18.792;2023-07-09T02:33:35;1008.47;;;19.30;61.23
54144;BME280;40050;47.324;18.792;2023-07-09T02:35:36;1008.44;;;19.28;61.28
54144;BME280;40050;47.324;18.792;2023-07-09T02:37:37;1008.43;;;19.25;61.32
54144;BME280;40050;47.324;18.792;2023-07-09T02:39:38;1008.40;;;19.22;61.33
54144;BME280;40050;47.324;18.792;2023-07-09T02:41:41;1008.38;;;19.16;61.58
54144;BME280;40050;47.324;18.792;2023-07-09T02:43:42;1008.43;;;19.12;61.76
54144;BME280;40050;47.324;18.792;2023-07-09T02:45:43;1008.43;;;19.12;61.81
54144;BME280;40050;47.324;18.792;2023-07-09T02:47:44;1008.42;;;19.12;61.62
54144;BME280;40050;47.324;18.792;2023-07-09T02:49:45;1008.40;;;19.11;61.48
54144;BME280;40050;47.324;18.792;2023-07-09T02:51:46;1008.46;;;19.14;61.36
54144;BME280;40050;47.324;18.792;2023-07-09T02:53:47;1008.47;;;19.12;61.51
54144;BME280;40050;47.324;18.792;2023-07-09T02:55:48;1008.51;;;19.09;61.87
54144;BME280;40050;47.324;18.792;2023-07-09T02:57:49;1008.39;;;18.95;60.42
54144;BME280;40050;47.324;18.792;2023-07-09T02:59:50;1008.54;;;19.01;59.89
54144;BME280;40050;47.324;18.792;2023-07-09T03:01:51;1008.57;;;18.94;60.20
54144;BME280;40050;47.324;18.792;2023-07-09T03:03:52;1008.54;;;18.89;60.63
54144;BME280;40050;47.324;18.792;2023-07-09T03:05:53;1008.55;;;18.87;61.09
54144;BME280;40050;47.324;18.792;2023-07-09T03:07:54;1008.50;;;18.84;61.23
54144;BME280;40050;47.324;18.792;2023-07-09T03:09:55;1008.50;;;18.79;61.20
54144;BME280;40050;47.324;18.792;2023-07-09T03:11:56;1008.48;;;18.76;61.42
54144;BME280;40050;47.324;18.792;2023-07-09T03:13:58;1008.55;;;18.73;61.73
54144;BME280;40050;47.324;18.792;2023-07-09T03:15:59;1008.53;;;18.71;62.21
54144;BME280;40050;47.324;18.792;2023-07-09T03:18:00;1008.55;;;18.68;62.25
54144;BME280;40050;47.324;18.792;2023-07-09T03:20:01;1008.56;;;18.66;62.39
54144;BME280;40050;47.324;18.792;2023-07-09T03:22:02;1008.55;;;18.63;62.53
54144;BME280;40050;47.324;18.792;2023-07-09T03:24:03;1008.59;;;18.62;62.59
54144;BME280;40050;47.324;18.792;2023-07-09T03:26:04;1008.49;;;18.57;62.79
54144;BME280;40050;47.324;18.792;2023-07-09T03:28:05;1008.58;;;18.59;62.99
54144;BME280;40050;47.324;18.792;2023-07-09T03:30:06;1008.53;;;18.53;63.08
54144;BME280;40050;47.324;18.792;2023-07-09T03:32:07;1008.55;;;18.51;63.08
54144;BME280;40050;47.324;18.792;2023-07-09T03:34:08;1008.58;;;18.50;63.17
54144;BME280;40050;47.324;18.792;2023-07-09T03:36:09;1008.65;;;18.51;63.12
54144;BME280;40050;47.324;18.792;2023-07-09T03:38:10;1008.60;;;18.49;63.02
54144;BME280;40050;47.324;18.792;2023-07-09T03:40:13;1008.70;;;18.48;63.10
54144;BME280;40050;47.324;18.792;2023-07-09T03:42:20;1008.65;;;18.42;63.33
54144;BME280;40050;47.324;18.792;2023-07-09T03:44:21;1008.68;;;18.43;63.56
54144;BME280;40050;47.324;18.792;2023-07-09T03:46:22;1008.69;;;18.45;63.76
54144;BME280;40050;47.324;18.792;2023-07-09T03:48:23;1008.66;;;18.44;63.95
54144;BME280;40050;47.324;18.792;2023-07-09T03:50:24;1008.71;;;18.46;64.06
54144;BME280;40050;47.324;18.792;2023-07-09T03:52:25;1008.64;;;18.45;64.22
54144;BME280;40050;47.324;18.792;2023-07-09T03:54:26;1008.66;;;18.44;64.36
54144;BME280;40050;47.324;18.792;2023-07-09T03:56:27;1008.70;;;18.48;64.43
54144;BME280;40050;47.324;18.792;2023-07-09T03:58:27;1008.71;;;18.49;64.51
54144;BME280;40050;47.324;18.792;2023-07-09T04:00:29;1008.68;;;18.50;64.67
54144;BME280;40050;47.324;18.792;2023-07-09T04:02:31;1008.70;;;18.52;64.80
54144;BME280;40050;47.324;18.792;2023-07-09T04:04:32;1008.64;;;18.51;64.92
54144;BME280;40050;47.324;18.792;2023-07-09T04:06:32;1008.66;;;18.55;65.04
54144;BME280;40050;47.324;18.792;2023-07-09T04:08:33;1008.67;;;18.55;65.10
54144;BME280;40050;47.324;18.792;2023-07-09T04:10:34;1008.66;;;18.56;65.02
54144;BME280;40050;47.324;18.792;2023-07-09T04:12:35;1008.68;;;18.60;64.86
54144;BME280;40050;47.324;18.792;2023-07-09T04:14:37;1008.67;;;18.61;64.78
54144;BME280;40050;47.324;18.792;2023-07-09T04:16:38;1008.68;;;18.64;64.75
54144;BME280;40050;47.324;18.792;2023-07-09T04:18:39;1008.69;;;18.66;64.76
54144;BME280;40050;47.324;18.792;2023-07-09T04:20:40;1008.68;;;18.68;64.67
54144;BME280;40050;47.324;18.792;2023-07-09T04:22:41;1008.68;;;18.71;64.67
54144;BME280;40050;47.324;18.792;2023-07-09T04:24:42;1008.66;;;18.72;64.74
54144;BME280;40050;47.324;18.792;2023-07-09T04:26:43;1008.66;;;18.75;64.96
54144;BME280;40050;47.324;18.792;2023-07-09T04:28:44;1008.65;;;18.79;65.11
54144;BME280;40050;47.324;18.792;2023-07-09T04:30:46;1008.39;;;18.64;65.13
54144;BME280;40050;47.324;18.792;2023-07-09T04:32:47;1008.70;;;18.86;65.09
54144;BME280;40050;47.324;18.792;2023-07-09T04:34:48;1008.67;;;18.89;65.06
54144;BME280;40050;47.324;18.792;2023-07-09T04:36:49;1008.68;;;18.92;65.09
54144;BME280;40050;47.324;18.792;2023-07-09T04:38:50;1008.66;;;18.96;65.12
54144;BME280;40050;47.324;18.792;2023-07-09T04:40:51;1008.67;;;19.02;65.22
54144;BME280;40050;47.324;18.792;2023-07-09T04:42:52;1008.66;;;19.07;65.41
54144;BME280;40050;47.324;18.792;2023-07-09T04:44:53;1008.73;;;19.15;65.98
54144;BME280;40050;47.324;18.792;2023-07-09T04:46:54;1008.67;;;19.20;66.13
54144;BME280;40050;47.324;18.792;2023-07-09T04:48:55;1008.68;;;19.24;66.40
54144;BME280;40050;47.324;18.792;2023-07-09T04:50:56;1008.74;;;19.36;66.59
54144;BME280;40050;47.324;18.792;2023-07-09T04:52:59;1008.75;;;19.45;66.71
54144;BME280;40050;47.324;18.792;2023-07-09T04:55:00;1008.72;;;19.55;66.86
54144;BME280;40050;47.324;18.792;2023-07-09T04:57:01;1008.73;;;19.63;66.77
54144;BME280;40050;47.324;18.792;2023-07-09T04:59:02;1008.79;;;19.79;66.84
54144;BME280;40050;47.324;18.792;2023-07-09T05:01:02;1008.82;;;19.94;66.78
54144;BME280;40050;47.324;18.792;2023-07-09T05:03:03;1008.79;;;20.11;66.72
54144;BME280;40050;47.324;18.792;2023-07-09T05:05:04;1008.83;;;20.28;66.49
54144;BME280;40050;47.324;18.792;2023-07-09T05:07:06;1008.77;;;20.44;65.99
54144;BME280;40050;47.324;18.792;2023-07-09T05:09:06;1008.79;;;20.63;65.53
54144;BME280;40050;47.324;18.792;2023-07-09T05:11:08;1008.74;;;20.82;64.95
54144;BME280;40050;47.324;18.792;2023-07-09T05:13:09;1008.75;;;21.00;64.44
54144;BME280;40050;47.324;18.792;2023-07-09T05:15:10;1008.73;;;21.19;63.73
54144;BME280;40050;47.324;18.792;2023-07-09T05:17:11;1008.77;;;21.36;63.03
54144;BME280;40050;47.324;18.792;2023-07-09T05:19:12;1008.77;;;21.55;62.67
54144;BME280;40050;47.324;18.792;2023-07-09T05:21:13;1008.76;;;21.72;62.59
54144;BME280;40050;47.324;18.792;2023-07-09T05:23:14;1008.72;;;21.86;62.22
54144;BME280;40050;47.324;18.792;2023-07-09T05:25:15;1008.82;;;22.10;61.91
54144;BME280;40050;47.324;18.792;2023-07-09T05:27:16;1008.83;;;22.26;61.59
54144;BME280;40050;47.324;18.792;2023-07-09T05:29:17;1008.59;;;22.27;61.49
54144;BME280;40050;47.324;18.792;2023-07-09T05:31:18;1008.81;;;22.61;60.80
54144;BME280;40050;47.324;18.792;2023-07-09T05:33:19;1008.79;;;22.75;60.76
54144;BME280;40050;47.324;18.792;2023-07-09T05:35:19;1008.86;;;22.97;59.75
54144;BME280;40050;47.324;18.792;2023-07-09T05:37:20;1008.89;;;23.14;59.36
54144;BME280;40050;47.324;18.792;2023-07-09T05:39:21;1008.82;;;23.28;59.03
54144;BME280;40050;47.324;18.792;2023-07-09T05:41:22;1008.87;;;23.47;58.52
54144;BME280;40050;47.324;18.792;2023-07-09T05:43:23;1008.87;;;23.64;57.60
54144;BME280;40050;47.324;18.792;2023-07-09T05:45:24;1008.87;;;23.81;57.05
54144;BME280;40050;47.324;18.792;2023-07-09T05:47:25;1008.88;;;23.97;57.22
54144;BME280;40050;47.324;18.792;2023-07-09T05:49:26;1008.92;;;24.15;57.45
54144;BME280;40050;47.324;18.792;2023-07-09T05:51:27;1008.94;;;24.33;57.43
54144;BME280;40050;47.324;18.792;2023-07-09T05:53:28;1008.83;;;24.46;56.66
54144;BME280;40050;47.324;18.792;2023-07-09T05:55:29;1008.88;;;24.67;55.60
54144;BME280;40050;47.324;18.792;2023-07-09T05:57:30;1008.89;;;24.85;54.27
54144;BME280;40050;47.324;18.792;2023-07-09T05:59:31;1008.68;;;24.90;55.71
54144;BME280;40050;47.324;18.792;2023-07-09T06:01:32;1008.90;;;25.22;54.88
54144;BME280;40050;47.324;18.792;2023-07-09T06:03:33;1008.89;;;25.39;54.57
54144;BME280;40050;47.324;18.792;2023-07-09T06:05:34;1008.86;;;25.60;54.28
54144;BME280;40050;47.324;18.792;2023-07-09T06:07:35;1008.87;;;25.78;52.36
54144;BME280;40050;47.324;18.792;2023-07-09T06:09:36;1008.87;;;25.94;51.53
54144;BME280;40050;47.324;18.792;2023-07-09T06:11:37;1008.84;;;26.12;50.15
54144;BME280;40050;47.324;18.792;2023-07-09T06:13:38;1008.82;;;26.28;48.72
54144;BME280;40050;47.324;18.792;2023-07-09T06:15:39;1008.69;;;26.31;46.86
54144;BME280;40050;47.324;18.792;2023-07-09T06:17:40;1008.90;;;26.57;47.78
54144;BME280;40050;47.324;18.792;2023-07-09T06:19:40;1008.88;;;26.73;48.20
54144;BME280;40050;47.324;18.792;2023-07-09T06:21:41;1008.87;;;26.91;46.69
54144;BME280;40050;47.324;18.792;2023-07-09T06:23:42;1008.85;;;27.06;45.54
54144;BME280;40050;47.324;18.792;2023-07-09T06:25:44;1008.81;;;27.19;46.21
54144;BME280;40050;47.324;18.792;2023-07-09T06:27:45;1008.85;;;27.36;46.32
54144;BME280;40050;47.324;18.792;2023-07-09T06:29:46;1008.84;;;27.50;45.97
54144;BME280;40050;47.324;18.792;2023-07-09T06:31:47;1008.82;;;27.64;45.67
54144;BME280;40050;47.324;18.792;2023-07-09T06:33:47;1008.87;;;27.85;44.77
54144;BME280;40050;47.324;18.792;2023-07-09T06:35:52;1008.88;;;27.96;44.16
54144;BME280;40050;47.324;18.792;2023-07-09T06:37:53;1008.87;;;28.13;44.23
54144;BME280;40050;47.324;18.792;2023-07-09T06:39:55;1008.83;;;28.30;45.03
54144;BME280;40050;47.324;18.792;2023-07-09T06:41:56;1008.77;;;28.41;44.47
54144;BME280;40050;47.324;18.792;2023-07-09T06:43:57;1008.87;;;28.65;42.96
54144;BME280;40050;47.324;18.792;2023-07-09T06:45:58;1008.94;;;28.85;43.79
54144;BME280;40050;47.324;18.792;2023-07-09T06:47:59;1008.88;;;29.02;41.65
54144;BME280;40050;47.324;18.792;2023-07-09T06:50:00;1008.92;;;29.17;41.49
54144;BME280;40050;47.324;18.792;2023-07-09T06:52:01;1008.94;;;29.33;40.87
54144;BME280;40050;47.324;18.792;2023-07-09T06:54:02;1008.81;;;29.40;39.76
54144;BME280;40050;47.324;18.792;2023-07-09T06:56:03;1008.93;;;29.58;39.32
54144;BME280;40050;47.324;18.792;2023-07-09T06:58:04;1008.94;;;29.71;39.14
54144;BME280;40050;47.324;18.792;2023-07-09T07:00:05;1009.02;;;29.86;38.52
54144;BME280;40050;47.324;18.792;2023-07-09T07:02:07;1009.02;;;29.99;38.33
54144;BME280;40050;47.324;18.792;2023-07-09T07:04:08;1008.92;;;30.13;37.55
54144;BME280;40050;47.324;18.792;2023-07-09T07:06:09;1008.95;;;30.28;36.54
54144;BME280;40050;47.324;18.792;2023-07-09T07:08:10;1008.99;;;30.45;37.32
54144;BME280;40050;47.324;18.792;2023-07-09T07:10:11;1008.90;;;30.54;35.44
54144;BME280;40050;47.324;18.792;2023-07-09T07:12:19;1008.86;;;30.65;34.92
54144;BME280;40050;47.324;18.792;2023-07-09T07:14:20;1008.88;;;30.74;34.93
54144;BME280;40050;47.324;18.792;2023-07-09T07:16:21;1008.86;;;30.84;36.25
54144;BME280;40050;47.324;18.792;2023-07-09T07:18:22;1008.94;;;30.98;35.70
54144;BME280;40050;47.324;18.792;2023-07-09T07:20:23;1008.63;;;31.00;35.18
54144;BME280;40050;47.324;18.792;2023-07-09T07:22:24;1008.90;;;31.29;35.04
54144;BME280;40050;47.324;18.792;2023-07-09T07:24:25;1008.88;;;31.45;35.47
54144;BME280;40050;47.324;18.792;2023-07-09T07:26:26;1008.88;;;31.62;34.71
54144;BME280;40050;47.324;18.792;2023-07-09T07:28:27;1008.84;;;31.77;34.00
54144;BME280;40050;47.324;18.792;2023-07-09T07:30:28;1008.81;;;31.88;34.30
54144;BME280;40050;47.324;18.792;2023-07-09T07:32:28;1008.88;;;31.95;34.30
54144;BME280;40050;47.324;18.792;2023-07-09T07:34:29;1008.91;;;32.10;34.23
54144;BME280;40050;47.324;18.792;2023-07-09T07:36:30;1008.81;;;32.19;33.78
54144;BME280;40050;47.324;18.792;2023-07-09T07:38:31;1008.91;;;32.42;33.67
54144;BME280;40050;47.324;18.792;2023-07-09T07:40:32;1008.87;;;32.57;33.09
54144;BME280;40050;47.324;18.792;2023-07-09T07:42:33;1008.86;;;32.68;31.86
54144;BME280;40050;47.324;18.792;2023-07-09T07:44:34;1008.89;;;32.80;31.15
54144;BME280;40050;47.324;18.792;2023-07-09T07:46:35;1008.83;;;32.82;30.29
54144;BME280;40050;47.324;18.792;2023-07-09T07:48:36;1008.84;;;32.83;30.38
54144;BME280;40050;47.324;18.792;2023-07-09T07:50:37;1008.86;;;32.85;30.12
54144;BME280;40050;47.324;18.792;2023-07-09T07:52:38;1008.84;;;32.86;30.42
54144;BME280;40050;47.324;18.792;2023-07-09T07:54:39;1008.84;;;32.94;30.28
54144;BME280;40050;47.324;18.792;2023-07-09T07:56:40;1008.85;;;33.01;30.20
54144;BME280;40050;47.324;18.792;2023-07-09T07:58:41;1008.83;;;33.10;29.95
54144;BME280;40050;47.324;18.792;2023-07-09T08:00:42;1008.79;;;33.22;29.34
54144;BME280;40050;47.324;18.792;2023-07-09T08:02:43;1008.82;;;33.38;29.47
54144;BME280;40050;47.324;18.792;2023-07-09T08:04:44;1008.81;;;33.51;28.10
54144;BME280;40050;47.324;18.792;2023-07-09T08:06:44;1008.82;;;33.57;27.86
54144;BME280;40050;47.324;18.792;2023-07-09T08:08:45;1008.86;;;33.55;28.22
54144;BME280;40050;47.324;18.792;2023-07-09T08:10:46;1008.83;;;33.62;29.03
54144;BME280;40050;47.324;18.792;2023-07-09T08:12:47;1008.80;;;33.75;27.83
54144;BME280;40050;47.324;18.792;2023-07-09T08:14:48;1008.79;;;33.78;28.56
54144;BME280;40050;47.324;18.792;2023-07-09T08:16:49;1008.77;;;33.92;28.29
54144;BME280;40050;47.324;18.792;2023-07-09T08:18:50;1008.78;;;34.01;28.18
54144;BME280;40050;47.324;18.792;2023-07-09T08:20:51;1008.76;;;34.14;28.25
54144;BME280;40050;47.324;18.792;2023-07-09T08:22:52;1008.74;;;34.29;26.71
54144;BME280;40050;47.324;18.792;2023-07-09T08:24:53;1008.74;;;34.33;28.03
54144;BME280;40050;47.324;18.792;2023-07-09T08:26:54;1008.73;;;34.44;27.91
54144;BME280;40050;47.324;18.792;2023-07-09T08:28:54;1008.72;;;34.55;27.47
54144;BME280;40050;47.324;18.792;2023-07-09T08:30:56;1008.75;;;34.63;28.11
54144;BME280;40050;47.324;18.792;2023-07-09T08:32:57;1008.72;;;34.66;27.67
54144;BME280;40050;47.324;18.792;2023-07-09T08:34:58;1008.74;;;34.78;27.43
54144;BME280;40050;47.324;18.792;2023-07-09T08:36:59;1008.68;;;34.85;27.43
54144;BME280;40050;47.324;18.792;2023-07-09T08:39:03;1008.69;;;35.01;26.94
54144;BME280;40050;47.324;18.792;2023-07-09T08:41:08;1008.67;;;35.03;26.94
54144;BME280;40050;47.324;18.792;2023-07-09T08:43:18;1008.68;;;35.07;26.61
54144;BME280;40050;47.324;18.792;2023-07-09T08:45:30;1008.68;;;35.11;27.39
54144;BME280;40050;47.324;18.792;2023-07-09T08:49:50;1008.66;;;35.28;27.49
54144;BME280;40050;47.324;18.792;2023-07-09T08:51:54;1008.62;;;35.34;26.86
54144;BME280;40050;47.324;18.792;2023-07-09T08:53:59;1008.62;;;35.48;26.63
54144;BME280;40050;47.324;18.792;2023-07-09T08:56:00;1008.57;;;35.53;25.97
54144;BME280;40050;47.324;18.792;2023-07-09T08:58:03;1008.57;;;35.44;25.88
54144;BME280;40050;47.324;18.792;2023-07-09T09:00:10;1008.59;;;35.43;26.13
54144;BME280;40050;47.324;18.792;2023-07-09T09:02:15;1008.64;;;35.46;26.19
54144;BME280;40050;47.324;18.792;2023-07-09T09:04:27;1008.63;;;35.52;26.69
54144;BME280;40050;47.324;18.792;2023-07-09T09:06:30;1008.57;;;35.62;26.04
54144;BME280;40050;47.324;18.792;2023-07-09T09:08:41;1008.66;;;35.86;25.43
54144;BME280;40050;47.324;18.792;2023-07-09T09:10:49;1008.63;;;35.94;26.46
54144;BME280;40050;47.324;18.792;2023-07-09T09:12:59;1008.60;;;36.07;25.74
54144;BME280;40050;47.324;18.792;2023-07-09T09:15:03;1008.56;;;36.14;25.45
54144;BME280;40050;47.324;18.792;2023-07-09T09:17:09;1008.60;;;36.29;25.19
54144;BME280;40050;47.324;18.792;2023-07-09T09:19:34;1008.61;;;36.34;24.93
54144;BME280;40050;47.324;18.792;2023-07-09T09:21:26;1008.64;;;36.38;24.53
54144;BME280;40050;47.324;18.792;2023-07-09T09:23:36;1008.57;;;36.45;24.98
54144;BME280;40050;47.324;18.792;2023-07-09T09:25:40;1008.56;;;36.58;23.86
54144;BME280;40050;47.324;18.792;2023-07-09T09:27:41;1008.57;;;36.56;24.49
54144;BME280;40050;47.324;18.792;2023-07-09T09:29:42;1008.60;;;36.59;23.80
54144;BME280;40050;47.324;18.792;2023-07-09T09:31:45;1008.60;;;36.62;23.83
54144;BME280;40050;47.324;18.792;2023-07-09T09:33:47;1008.63;;;36.59;24.12
54144;BME280;40050;47.324;18.792;2023-07-09T09:35:48;1008.58;;;36.56;24.03
54144;BME280;40050;47.324;18.792;2023-07-09T09:37:50;1008.64;;;36.58;23.27
54144;BME280;40050;47.324;18.792;2023-07-09T09:39:51;1008.58;;;36.52;23.36
54144;BME280;40050;47.324;18.792;2023-07-09T09:41:57;1008.67;;;36.54;23.47
54144;BME280;40050;47.324;18.792;2023-07-09T09:43:58;1008.61;;;36.51;24.41
54144;BME280;40050;47.324;18.792;2023-07-09T09:45:59;1008.63;;;36.60;24.01
54144;BME280;40050;47.324;18.792;2023-07-09T09:48:03;1008.64;;;36.61;23.22
54144;BME280;40050;47.324;18.792;2023-07-09T09:50:14;1008.62;;;36.46;23.00
54144;BME280;40050;47.324;18.792;2023-07-09T09:52:16;1008.54;;;36.28;22.92
54144;BME280;40050;47.324;18.792;2023-07-09T09:54:21;1008.59;;;36.15;23.07
54144;BME280;40050;47.324;18.792;2023-07-09T09:56:34;1008.59;;;36.00;23.87
54144;BME280;40050;47.324;18.792;2023-07-09T09:58:39;1008.54;;;35.95;23.32
54144;BME280;40050;47.324;18.792;2023-07-09T10:00:45;1008.57;;;35.84;23.57
54144;BME280;40050;47.324;18.792;2023-07-09T10:02:47;1008.52;;;35.76;23.30
54144;BME280;40050;47.324;18.792;2023-07-09T10:04:48;1008.49;;;35.67;23.58
54144;BME280;40050;47.324;18.792;2023-07-09T10:06:50;1008.46;;;35.58;23.88
54144;BME280;40050;47.324;18.792;2023-07-09T10:08:56;1008.48;;;35.58;23.76
54144;BME280;40050;47.324;18.792;2023-07-09T10:11:05;1008.46;;;35.57;24.16
54144;BME280;40050;47.324;18.792;2023-07-09T10:13:20;1008.49;;;35.47;23.56
54144;BME280;40050;47.324;18.792;2023-07-09T10:15:25;1008.38;;;35.36;23.95
54144;BME280;40050;47.324;18.792;2023-07-09T10:19:48;1008.45;;;35.38;24.39
54144;BME280;40050;47.324;18.792;2023-07-09T10:21:52;1008.45;;;35.43;24.45
54144;BME280;40050;47.324;18.792;2023-07-09T10:24:02;1008.50;;;35.36;24.42
54144;BME280;40050;47.324;18.792;2023-07-09T10:26:18;1008.42;;;35.32;24.40
54144;BME280;40050;47.324;18.792;2023-07-09T10:30:55;1008.44;;;35.33;24.69
54144;BME280;40050;47.324;18.792;2023-07-09T10:33:10;1008.32;;;35.37;25.07
54144;BME280;40050;47.324;18.792;2023-07-09T10:35:21;1008.19;;;35.41;24.36
54144;BME280;40050;47.324;18.792;2023-07-09T10:37:30;1008.34;;;35.52;23.88
54144;BME280;40050;47.324;18.792;2023-07-09T10:39:38;1008.34;;;35.59;23.82
54144;BME280;40050;47.324;18.792;2023-07-09T10:41:41;1008.32;;;35.38;23.84
54144;BME280;40050;47.324;18.792;2023-07-09T10:43:45;1008.36;;;34.97;23.68
54144;BME280;40050;47.324;18.792;2023-07-09T10:45:49;1008.35;;;34.99;24.29
54144;BME280;40050;47.324;18.792;2023-07-09T10:48:02;1008.30;;;34.93;24.17
54144;BME280;40050;47.324;18.792;2023-07-09T10:50:06;1008.29;;;34.86;24.75
54144;BME280;40050;47.324;18.792;2023-07-09T10:52:14;1008.27;;;34.71;24.89
54144;BME280;40050;47.324;18.792;2023-07-09T10:54:28;1008.30;;;34.51;25.63